Time;durP1;ratioP1;P1;durP2;ratioP2;P2;SDS_P1;SDS_P2;PMS_P1;PMS_P2;Temp;Humidity;BMP_temperature;BMP_pressure;BME280_temperature;BME280_humidity;BME280_pressure;Samples;Min_cycle;Max_cycle;Signal;HPM_P1;HPM_P2
2024/02/29 00:00:27;;;;;;;30.02;18.95;;;3.60;99.90;;;;;;5020443;28;20207;-76
2024/02/29 00:02:54;;;;;;;38.85;20.02;;;3.60;99.90;;;;;;5034211;28;20195;-76
2024/02/29 00:05:21;;;;;;;30.30;19.13;;;3.60;99.90;;;;;;5024320;28;20229;-76
2024/02/29 00:07:48;;;;;;;33.47;20.20;;;3.50;99.90;;;;;;5012476;28;20315;-76
2024/02/29 00:10:16;;;;;;;31.17;18.20;;;3.70;99.90;;;;;;5016094;28;20204;-76
2024/02/29 00:12:43;;;;;;;33.08;18.65;;;3.60;99.90;;;;;;5034877;28;20199;-76
2024/02/29 00:15:10;;;;;;;32.70;18.05;;;3.60;99.90;;;;;;5029419;28;20278;-76
2024/02/29 00:17:37;;;;;;;30.27;18.88;;;3.60;99.90;;;;;;5029905;28;20571;-76
2024/02/29 00:20:08;;;;;;;29.38;18.05;;;3.50;99.90;;;;;;5017091;28;20193;-76
2024/02/29 00:22:35;;;;;;;31.27;18.42;;;3.50;99.90;;;;;;5027733;28;20246;-76
2024/02/29 00:25:02;;;;;;;32.15;18.50;;;3.50;99.90;;;;;;5057707;28;20708;-76
2024/02/29 00:27:31;;;;;;;30.48;18.40;;;3.40;99.90;;;;;;5041308;28;20230;-76
2024/02/29 00:29:58;;;;;;;28.20;18.05;;;3.50;99.90;;;;;;5028820;28;20218;-76
2024/02/29 00:32:25;;;;;;;34.40;18.90;;;3.30;99.90;;;;;;5007596;28;20190;-76
2024/02/29 00:34:52;;;;;;;26.75;17.73;;;3.30;99.90;;;;;;5020223;28;20196;-76
2024/02/29 00:37:19;;;;;;;28.15;18.42;;;3.20;99.90;;;;;;5028589;28;20212;-76
2024/02/29 00:39:46;;;;;;;35.30;19.98;;;3.00;99.90;;;;;;5039419;28;20210;-76
2024/02/29 00:42:12;;;;;;;31.20;18.85;;;3.00;99.90;;;;;;5032250;28;20196;-76
2024/02/29 00:44:40;;;;;;;32.45;19.67;;;3.40;99.90;;;;;;5020304;28;20197;-76
2024/02/29 00:47:07;;;;;;;31.70;18.63;;;2.90;99.90;;;;;;5015905;28;20231;-76
2024/02/29 00:49:34;;;;;;;30.70;19.35;;;2.80;99.90;;;;;;5021844;28;20205;-76
2024/02/29 00:52:01;;;;;;;32.22;18.63;;;2.80;99.90;;;;;;5042829;28;20198;-76
2024/02/29 00:54:28;;;;;;;29.27;19.67;;;2.90;99.90;;;;;;5022142;28;20291;-76
2024/02/29 00:56:55;;;;;;;30.55;19.85;;;2.90;99.90;;;;;;5033586;28;20198;-77
2024/02/29 00:59:21;;;;;;;26.75;16.10;;;2.90;99.90;;;;;;5029568;28;20196;-76
2024/02/29 01:01:50;;;;;;;36.13;19.95;;;3.00;99.90;;;;;;5029087;28;20205;-76
2024/02/29 01:04:17;;;;;;;32.83;20.10;;;3.00;99.90;;;;;;5037132;27;20540;-76
2024/02/29 01:06:44;;;;;;;26.30;17.40;;;2.80;99.90;;;;;;5089033;27;20438;-76
2024/02/29 01:09:10;;;;;;;31.13;17.92;;;2.90;99.90;;;;;;5050085;27;20291;-76
2024/02/29 01:11:38;;;;;;;30.42;20.58;;;2.80;99.90;;;;;;5016680;28;20205;-76
2024/02/29 01:14:05;;;;;;;32.22;18.48;;;2.80;99.90;;;;;;5020964;28;20196;-76
2024/02/29 01:16:32;;;;;;;29.83;17.52;;;2.90;99.90;;;;;;5016714;28;20231;-76
2024/02/29 01:19:01;;;;;;;28.13;18.20;;;2.90;99.90;;;;;;5017830;28;20230;-76
2024/02/29 01:21:28;;;;;;;30.30;19.10;;;2.90;99.90;;;;;;5029955;28;20529;-76
2024/02/29 01:23:55;;;;;;;25.17;16.13;;;2.80;99.90;;;;;;5033294;28;20556;-76
2024/02/29 01:26:22;;;;;;;24.10;16.85;;;2.70;99.90;;;;;;5009948;28;20789;-76
2024/02/29 01:28:49;;;;;;;28.58;18.17;;;2.70;99.90;;;;;;5042938;28;20190;-76
2024/02/29 01:31:15;;;;;;;38.97;18.95;;;2.80;99.90;;;;;;5031823;28;20202;-76
2024/02/29 01:33:42;;;;;;;29.38;19.15;;;2.80;99.90;;;;;;5033243;28;20212;-76
2024/02/29 01:36:10;;;;;;;26.20;18.45;;;2.70;99.90;;;;;;5023895;28;20209;-74
2024/02/29 01:38:37;;;;;;;39.15;20.42;;;2.80;99.90;;;;;;5039078;28;20202;-75
2024/02/29 01:41:04;;;;;;;29.60;17.13;;;2.70;99.90;;;;;;5025565;28;20207;-75
2024/02/29 01:43:31;;;;;;;28.10;19.48;;;2.70;99.90;;;;;;5035768;28;20236;-75
2024/02/29 01:46:11;;;;;;;22.88;16.08;;;2.80;99.90;;;;;;5029092;28;20559;-75
2024/02/29 01:48:38;;;;;;;29.65;17.30;;;2.70;99.90;;;;;;5034975;28;20228;-75
2024/02/29 01:51:06;;;;;;;27.10;18.70;;;2.70;99.90;;;;;;5028442;28;20213;-75
2024/02/29 01:53:34;;;;;;;25.35;17.48;;;2.60;99.90;;;;;;5016382;28;20281;-75
2024/02/29 01:56:01;;;;;;;25.15;16.25;;;2.60;99.90;;;;;;5013746;28;20657;-75
2024/02/29 01:58:29;;;;;;;21.90;15.95;;;2.60;99.90;;;;;;5021956;28;20287;-75
2024/02/29 02:00:56;;;;;;;26.10;17.05;;;2.50;99.90;;;;;;5028446;28;20193;-75
2024/02/29 02:03:23;;;;;;;24.98;16.80;;;2.40;99.90;;;;;;5033098;28;20429;-75
2024/02/29 02:05:50;;;;;;;24.55;16.25;;;2.30;99.90;;;;;;5035836;28;20504;-75
2024/02/29 02:08:17;;;;;;;24.20;16.58;;;2.30;99.90;;;;;;5032861;28;20286;-75
2024/02/29 02:10:45;;;;;;;25.70;18.48;;;2.30;99.90;;;;;;5024935;28;20214;-75
2024/02/29 02:13:12;;;;;;;24.45;15.38;;;2.30;99.90;;;;;;5024509;28;20202;-75
2024/02/29 02:15:40;;;;;;;28.85;18.05;;;2.20;99.90;;;;;;5031389;28;20198;-75
2024/02/29 02:18:08;;;;;;;25.95;16.65;;;2.40;99.90;;;;;;5035135;28;20194;-75
2024/02/29 02:20:37;;;;;;;27.13;16.95;;;2.40;99.90;;;;;;5008798;28;20211;-75
2024/02/29 02:23:05;;;;;;;29.65;17.98;;;2.30;99.90;;;;;;5039758;28;20293;-75
2024/02/29 02:25:32;;;;;;;27.48;18.55;;;2.40;99.90;;;;;;5019538;28;20217;-75
2024/02/29 02:27:58;;;;;;;26.05;17.45;;;2.30;99.90;;;;;;5031112;28;20220;-75
2024/02/29 02:30:28;;;;;;;34.22;16.65;;;2.30;99.90;;;;;;5030501;28;20664;-75
2024/02/29 02:32:54;;;;;;;29.83;17.73;;;2.40;99.90;;;;;;5025566;28;20214;-75
2024/02/29 02:35:22;;;;;;;29.38;15.93;;;2.30;99.90;;;;;;5047072;28;20206;-75
2024/02/29 02:37:50;;;;;;;30.65;17.40;;;2.20;99.90;;;;;;5054675;27;20244;-75
2024/02/29 02:40:19;;;;;;;30.92;17.88;;;2.20;99.90;;;;;;5026512;28;20207;-75
2024/02/29 02:42:46;;;;;;;29.50;17.02;;;2.20;99.90;;;;;;5018876;28;20215;-75
2024/02/29 02:45:14;;;;;;;32.00;17.58;;;2.10;99.90;;;;;;5029867;28;20286;-75
2024/02/29 02:47:42;;;;;;;28.55;17.75;;;2.00;99.90;;;;;;5037698;28;20224;-75
2024/02/29 02:50:11;;;;;;;27.23;17.75;;;2.00;99.90;;;;;;5033389;28;20674;-75
2024/02/29 02:52:37;;;;;;;36.17;21.77;;;2.10;99.90;;;;;;5031333;28;20253;-75
2024/02/29 02:55:07;;;;;;;33.30;20.58;;;2.20;99.90;;;;;;5035784;28;20205;-75
2024/02/29 02:57:34;;;;;;;29.80;18.50;;;2.20;99.90;;;;;;5027007;28;20214;-75
2024/02/29 03:00:01;;;;;;;31.73;18.02;;;2.30;99.90;;;;;;5027717;28;20200;-75
2024/02/29 03:02:27;;;;;;;33.50;19.40;;;2.30;99.90;;;;;;5046574;28;20200;-75
2024/02/29 03:04:54;;;;;;;30.13;20.92;;;2.30;99.90;;;;;;5020704;28;20249;-75
2024/02/29 03:07:22;;;;;;;32.42;19.08;;;2.30;99.90;;;;;;5032785;28;20218;-75
2024/02/29 03:09:49;;;;;;;33.10;20.33;;;2.30;99.90;;;;;;5025053;27;20242;-75
2024/02/29 03:12:21;;;;;;;29.73;17.52;;;2.40;99.90;;;;;;5016081;28;20595;-75
2024/02/29 03:14:49;;;;;;;39.65;22.48;;;2.40;99.90;;;;;;5021064;28;20201;-75
2024/02/29 03:17:18;;;;;;;34.70;19.60;;;2.40;99.90;;;;;;5045723;28;20237;-75
2024/02/29 03:19:44;;;;;;;42.50;20.67;;;2.40;99.90;;;;;;5026090;28;20269;-75
2024/02/29 03:22:13;;;;;;;31.27;21.08;;;2.40;99.90;;;;;;5030121;28;20209;-75
2024/02/29 03:24:43;;;;;;;34.42;19.67;;;2.40;99.90;;;;;;5037501;27;20259;-75
2024/02/29 03:27:11;;;;;;;29.27;19.83;;;2.30;99.90;;;;;;5021560;28;20222;-75
2024/02/29 03:29:40;;;;;;;30.27;19.27;;;2.30;99.90;;;;;;5021560;28;20255;-75
2024/02/29 03:32:08;;;;;;;32.67;20.08;;;2.30;99.90;;;;;;5009571;28;20546;-75
2024/02/29 03:34:35;;;;;;;36.53;21.00;;;2.30;99.90;;;;;;5035956;28;20656;-75
2024/02/29 03:37:02;;;;;;;34.35;18.50;;;2.30;99.90;;;;;;5072312;27;20674;-75
2024/02/29 03:39:30;;;;;;;33.45;21.05;;;2.30;99.90;;;;;;5047661;27;20190;-75
2024/02/29 03:41:58;;;;;;;26.40;18.75;;;2.30;99.90;;;;;;5007216;28;20214;-75
2024/02/29 03:44:25;;;;;;;35.17;20.45;;;2.30;99.90;;;;;;5040610;28;20202;-75
2024/02/29 03:46:54;;;;;;;37.55;22.20;;;2.30;99.90;;;;;;5030960;28;20233;-75
2024/02/29 03:49:22;;;;;;;30.27;20.13;;;2.30;99.90;;;;;;5035603;28;20202;-75
2024/02/29 03:51:49;;;;;;;36.70;20.60;;;2.20;99.90;;;;;;5025064;28;20205;-75
2024/02/29 03:54:15;;;;;;;30.95;20.25;;;2.20;99.90;;;;;;5014597;28;20198;-75
2024/02/29 03:56:42;;;;;;;35.70;20.17;;;2.20;99.90;;;;;;5031501;28;20197;-75
2024/02/29 03:59:09;;;;;;;32.95;19.17;;;2.20;99.90;;;;;;5017323;28;20622;-75
2024/02/29 04:01:37;;;;;;;31.75;20.40;;;2.20;99.90;;;;;;5020019;28;20223;-75
2024/02/29 04:04:05;;;;;;;37.75;21.58;;;2.20;99.90;;;;;;5025393;28;20213;-75
2024/02/29 04:06:32;;;;;;;40.10;22.92;;;2.20;99.90;;;;;;5011988;28;20631;-75
2024/02/29 04:08:59;;;;;;;32.05;19.05;;;2.20;99.90;;;;;;5029647;28;20557;-75
2024/02/29 04:11:25;;;;;;;28.05;18.80;;;2.20;99.90;;;;;;5027340;28;20254;-75
2024/02/29 04:13:53;;;;;;;28.05;18.90;;;2.10;99.90;;;;;;5025191;28;20228;-75
2024/02/29 04:16:19;;;;;;;29.05;18.75;;;2.00;99.90;;;;;;5024956;28;20599;-75
2024/02/29 04:18:46;;;;;;;30.85;19.23;;;2.00;99.90;;;;;;5027758;28;20605;-75
2024/02/29 04:21:14;;;;;;;30.80;19.05;;;2.00;99.90;;;;;;5006041;28;20206;-76
2024/02/29 04:23:41;;;;;;;31.13;18.98;;;2.00;99.90;;;;;;5012526;28;20193;-75
2024/02/29 04:26:08;;;;;;;32.38;21.10;;;1.90;99.90;;;;;;5040482;28;20188;-76
2024/02/29 04:28:35;;;;;;;38.97;21.35;;;1.90;99.90;;;;;;5033798;28;20232;-75
2024/02/29 04:31:04;;;;;;;41.20;20.77;;;1.90;99.90;;;;;;5030170;28;20196;-76
2024/02/29 04:33:31;;;;;;;31.48;17.95;;;1.90;99.90;;;;;;5036016;28;20259;-75
2024/02/29 04:35:57;;;;;;;29.48;19.27;;;1.90;99.90;;;;;;5023170;28;20205;-75
2024/02/29 04:38:26;;;;;;;28.45;18.40;;;1.90;99.90;;;;;;5041193;28;20493;-75
2024/02/29 04:40:54;;;;;;;39.53;21.25;;;1.90;99.90;;;;;;5039349;28;20190;-75
2024/02/29 04:43:21;;;;;;;33.70;19.80;;;1.90;99.90;;;;;;5040608;27;20208;-75
2024/02/29 04:45:48;;;;;;;31.77;18.00;;;1.80;99.90;;;;;;5059003;28;20198;-75
2024/02/29 04:48:15;;;;;;;28.45;17.95;;;1.80;99.90;;;;;;5077953;27;20216;-77
2024/02/29 04:50:42;;;;;;;39.45;19.75;;;1.70;99.90;;;;;;5055017;28;20201;-75
2024/02/29 04:53:08;;;;;;;32.47;19.50;;;1.80;99.90;;;;;;5052598;28;20207;-75
2024/02/29 04:55:36;;;;;;;32.28;18.75;;;1.90;99.90;;;;;;5055598;28;20196;-75
2024/02/29 04:58:04;;;;;;;29.92;19.50;;;1.70;99.90;;;;;;5025050;28;20207;-75
2024/02/29 05:00:31;;;;;;;40.88;21.83;;;1.70;99.90;;;;;;5076530;28;20195;-75
2024/02/29 05:02:57;;;;;;;33.17;19.33;;;1.70;99.90;;;;;;5036248;28;20219;-75
2024/02/29 05:05:24;;;;;;;37.33;22.40;;;1.70;99.90;;;;;;5032604;28;20201;-75
2024/02/29 05:07:51;;;;;;;29.30;19.02;;;1.70;99.90;;;;;;5034286;28;20216;-75
2024/02/29 05:10:18;;;;;;;33.30;18.35;;;1.80;99.90;;;;;;5035848;28;20550;-75
2024/02/29 05:12:50;;;;;;;33.05;19.30;;;1.80;99.90;;;;;;5033167;28;20287;-75
2024/02/29 05:15:19;;;;;;;28.88;17.80;;;1.60;99.90;;;;;;5043341;28;20197;-75
2024/02/29 05:17:45;;;;;;;31.05;18.63;;;1.80;99.90;;;;;;5038247;28;20279;-75
2024/02/29 05:20:12;;;;;;;34.80;19.52;;;1.90;99.90;;;;;;5015685;28;20212;-75
2024/02/29 05:22:39;;;;;;;32.65;19.27;;;1.70;99.90;;;;;;5015201;28;20205;-75
2024/02/29 05:25:08;;;;;;;31.40;19.60;;;1.80;99.90;;;;;;5024980;28;20211;-75
2024/02/29 05:27:34;;;;;;;32.35;19.80;;;1.80;99.90;;;;;;5023359;28;20209;-75
2024/02/29 05:30:03;;;;;;;32.30;17.85;;;1.80;99.90;;;;;;5019906;28;20204;-75
2024/02/29 05:32:30;;;;;;;30.73;18.55;;;1.80;99.90;;;;;;5032571;28;20208;-75
2024/02/29 05:34:56;;;;;;;25.63;16.65;;;1.80;99.90;;;;;;5020144;28;20207;-75
2024/02/29 05:37:23;;;;;;;34.38;19.33;;;1.80;99.90;;;;;;5013109;28;20610;-75
2024/02/29 05:39:50;;;;;;;30.17;18.27;;;1.80;99.90;;;;;;5031452;28;20733;-76
2024/02/29 05:42:17;;;;;;;29.77;18.70;;;1.80;99.90;;;;;;5025718;28;20190;-76
2024/02/29 05:44:44;;;;;;;35.00;21.77;;;1.80;99.90;;;;;;5029875;28;20209;-76
2024/02/29 05:47:12;;;;;;;28.25;18.20;;;1.80;99.90;;;;;;5026648;28;20292;-75
2024/02/29 05:49:39;;;;;;;28.45;19.02;;;1.80;99.90;;;;;;5048154;27;20663;-76
2024/02/29 05:52:06;;;;;;;29.50;19.30;;;1.80;99.90;;;;;;5069132;27;20284;-76
2024/02/29 05:54:33;;;;;;;26.23;16.90;;;1.80;99.90;;;;;;5036168;28;20335;-75
2024/02/29 05:56:59;;;;;;;27.00;17.77;;;1.70;99.90;;;;;;5031129;28;20202;-76
2024/02/29 05:59:26;;;;;;;26.60;17.15;;;1.60;99.90;;;;;;5049161;27;20204;-76
2024/02/29 06:01:53;;;;;;;27.08;18.38;;;1.70;99.90;;;;;;5087524;27;20217;-76
2024/02/29 06:04:21;;;;;;;24.13;16.65;;;1.60;99.90;;;;;;5063325;27;20203;-78
2024/02/29 06:06:48;;;;;;;25.77;17.90;;;1.60;99.90;;;;;;5081191;27;20574;-79
2024/02/29 06:09:15;;;;;;;28.35;18.17;;;1.60;99.90;;;;;;5027467;27;20694;-78
2024/02/29 06:11:42;;;;;;;21.85;16.38;;;1.60;99.90;;;;;;5029235;27;20639;-78
2024/02/29 06:14:10;;;;;;;31.75;19.23;;;1.60;99.90;;;;;;5036372;27;20286;-78
2024/02/29 06:16:37;;;;;;;29.80;18.60;;;1.70;99.90;;;;;;5032575;27;20292;-77
2024/02/29 06:19:04;;;;;;;25.15;16.48;;;1.60;99.90;;;;;;5023290;28;20199;-78
2024/02/29 06:21:32;;;;;;;30.30;17.83;;;1.70;99.90;;;;;;5045718;28;20200;-77
2024/02/29 06:23:58;;;;;;;33.28;18.02;;;1.70;99.90;;;;;;5022446;28;20199;-78
2024/02/29 06:26:25;;;;;;;25.92;19.10;;;1.70;99.90;;;;;;5035608;28;20200;-78
2024/02/29 06:28:52;;;;;;;30.05;18.60;;;1.70;99.90;;;;;;5024763;28;20255;-78
2024/02/29 06:31:19;;;;;;;33.35;18.85;;;1.70;99.90;;;;;;5031909;28;20578;-78
2024/02/29 06:33:46;;;;;;;26.85;16.67;;;1.70;99.90;;;;;;5017260;28;20217;-78
2024/02/29 06:36:13;;;;;;;31.77;18.60;;;1.80;99.90;;;;;;5021901;28;20203;-77
2024/02/29 06:38:41;;;;;;;31.83;18.70;;;1.80;99.90;;;;;;5030883;28;20643;-77
2024/02/29 06:41:10;;;;;;;32.72;20.30;;;1.80;99.90;;;;;;5033643;28;20295;-78
2024/02/29 06:43:36;;;;;;;29.00;19.45;;;1.80;99.90;;;;;;5019026;28;20280;-78
2024/02/29 06:46:06;;;;;;;40.38;20.40;;;1.80;99.90;;;;;;5017261;28;20201;-78
2024/02/29 06:48:33;;;;;;;30.83;19.63;;;1.80;99.90;;;;;;5024616;27;20228;-78
2024/02/29 06:51:00;;;;;;;33.88;19.33;;;1.90;99.90;;;;;;5032401;28;20208;-78
2024/02/29 06:53:27;;;;;;;43.55;20.02;;;1.90;99.90;;;;;;5027806;28;20971;-78
2024/02/29 06:55:55;;;;;;;28.05;19.15;;;2.00;99.90;;;;;;5026775;27;20310;-78
2024/02/29 07:04:29;;;;;;;45.83;19.73;;;2.10;99.90;;;;;;5017999;28;20233;-78
2024/02/29 07:06:56;;;;;;;39.85;20.52;;;4.70;99.90;;;;;;5026972;28;20247;-78
2024/02/29 07:09:22;;;;;;;33.72;20.58;;;2.30;99.90;;;;;;5020895;28;20226;-77
2024/02/29 07:11:51;;;;;;;33.58;19.23;;;2.30;99.90;;;;;;5027877;28;20214;-78
2024/02/29 07:14:17;;;;;;;33.00;19.92;;;2.40;99.90;;;;;;5021549;28;20208;-77
2024/02/29 07:16:46;;;;;;;42.00;17.80;;;2.50;99.90;;;;;;5029627;27;20198;-78
2024/02/29 07:19:13;;;;;;;37.20;20.30;;;2.50;99.90;;;;;;5039018;27;20198;-77
2024/02/29 07:21:41;;;;;;;31.17;19.98;;;2.60;99.90;;;;;;5027971;28;20314;-77
2024/02/29 07:24:08;;;;;;;31.73;20.60;;;2.70;99.90;;;;;;5038514;27;20209;-78
2024/02/29 07:26:41;;;;;;;29.23;20.45;;;2.70;99.90;;;;;;5081954;27;20251;-78
2024/02/29 07:29:09;;;;;;;35.67;24.73;;;2.80;99.90;;;;;;5104546;27;20983;-78
2024/02/29 07:31:40;;;;;;;41.30;21.67;;;2.80;99.90;;;;;;5029120;27;20209;-77
2024/02/29 07:34:06;;;;;;;31.77;22.33;;;2.90;99.90;;;;;;5059473;27;20757;-78
2024/02/29 07:36:33;;;;;;;33.97;20.90;;;2.90;99.90;;;;;;5029514;28;20219;-78
2024/02/29 07:39:00;;;;;;;32.05;21.23;;;2.90;99.90;;;;;;5029646;28;20217;-77
2024/02/29 07:41:27;;;;;;;38.38;20.92;;;2.70;99.90;;;;;;5051391;27;20689;-78
2024/02/29 07:43:55;;;;;;;33.83;21.20;;;2.80;99.90;;;;;;5026684;28;20277;-77
2024/02/29 07:46:23;;;;;;;32.75;20.33;;;3.00;99.90;;;;;;5027705;28;20210;-77
2024/02/29 07:48:50;;;;;;;32.45;21.50;;;3.10;99.90;;;;;;5027821;28;20226;-78
2024/02/29 07:51:18;;;;;;;35.67;25.98;;;3.20;99.90;;;;;;5029227;28;20203;-77
2024/02/29 07:53:45;;;;;;;50.47;32.03;;;3.40;99.90;;;;;;5028424;28;20539;-77
2024/02/29 07:56:12;;;;;;;39.95;25.30;;;3.50;99.90;;;;;;5027489;28;20441;-78
2024/02/29 07:58:39;;;;;;;36.90;22.00;;;3.50;99.90;;;;;;5025867;28;20222;-77
2024/02/29 08:01:05;;;;;;;38.90;22.60;;;3.60;99.90;;;;;;5028417;28;20210;-78
2024/02/29 08:03:33;;;;;;;33.27;21.17;;;3.80;99.90;;;;;;5028871;28;20653;-78
2024/02/29 08:06:00;;;;;;;31.35;20.67;;;3.90;99.90;;;;;;5027985;28;20725;-78
2024/02/29 08:08:27;;;;;;;32.85;20.08;;;4.00;99.90;;;;;;5037471;27;20275;-77
2024/02/29 08:10:54;;;;;;;38.78;21.58;;;4.20;99.90;;;;;;5036459;27;20697;-77
2024/02/29 08:13:20;;;;;;;38.28;24.52;;;4.30;99.90;;;;;;5028571;28;20671;-77
2024/02/29 08:15:47;;;;;;;34.45;20.67;;;4.30;99.90;;;;;;5084836;27;20203;-76
2024/02/29 08:18:14;;;;;;;32.33;19.90;;;4.20;99.90;;;;;;5058448;27;20329;-76
2024/02/29 08:20:43;;;;;;;31.45;20.58;;;4.40;99.90;;;;;;5056769;28;20222;-76
2024/02/29 08:23:11;;;;;;;32.75;20.90;;;4.50;99.90;;;;;;5059724;28;20832;-76
2024/02/29 08:25:38;;;;;;;32.03;20.48;;;4.60;99.90;;;;;;5079055;27;20211;-77
2024/02/29 08:28:06;;;;;;;36.05;22.35;;;4.70;99.90;;;;;;5052771;27;20282;-77
2024/02/29 08:30:33;;;;;;;35.30;21.55;;;4.80;99.90;;;;;;5036163;28;20231;-77
2024/02/29 08:33:00;;;;;;;31.30;19.98;;;5.00;99.90;;;;;;5027054;28;20212;-77
2024/02/29 08:35:32;;;;;;;39.22;21.92;;;5.10;99.90;;;;;;5035704;28;20239;-82
2024/02/29 08:38:00;;;;;;;35.47;22.65;;;5.10;99.90;;;;;;5041643;28;20542;-76
2024/02/29 08:40:27;;;;;;;34.28;21.52;;;5.20;99.90;;;;;;5011527;28;20284;-77
2024/02/29 08:42:54;;;;;;;34.30;19.88;;;5.30;99.90;;;;;;5027039;28;20208;-77
2024/02/29 08:45:22;;;;;;;39.35;20.17;;;5.50;99.90;;;;;;5025761;28;20250;-77
2024/02/29 08:47:49;;;;;;;28.73;17.50;;;5.70;99.90;;;;;;5020966;28;20629;-77
2024/02/29 08:50:16;;;;;;;34.83;20.25;;;5.50;99.90;;;;;;5027919;28;20229;-77
2024/02/29 08:52:43;;;;;;;36.03;22.00;;;5.60;99.90;;;;;;5024750;28;20710;-77
2024/02/29 08:55:11;;;;;;;30.00;19.25;;;5.80;99.90;;;;;;5047540;27;20663;-76
2024/02/29 08:57:38;;;;;;;33.85;19.83;;;6.00;99.90;;;;;;5048821;27;20279;-76
2024/02/29 09:00:06;;;;;;;34.03;20.45;;;6.10;99.90;;;;;;5026967;28;20224;-76
2024/02/29 09:02:33;;;;;;;27.95;19.13;;;6.30;99.90;;;;;;5025305;28;20295;-77
2024/02/29 09:05:00;;;;;;;26.75;18.35;;;6.40;99.80;;;;;;5026243;28;20609;-76
2024/02/29 09:07:27;;;;;;;33.08;20.52;;;6.40;99.70;;;;;;5028289;28;20472;-76
2024/02/29 09:09:53;;;;;;;32.92;17.92;;;6.50;99.90;;;;;;5022205;28;20221;-77
2024/02/29 09:12:23;;;;;;;29.42;18.88;;;6.50;99.90;;;;;;5022969;28;20283;-76
2024/02/29 09:14:50;;;;;;;35.65;19.75;;;6.50;99.90;;;;;;5027543;28;20192;-76
2024/02/29 09:17:16;;;;;;;31.85;19.23;;;6.60;99.90;;;;;;5022304;28;20211;-77
2024/02/29 09:19:43;;;;;;;28.13;18.35;;;6.80;99.60;;;;;;5018180;28;20616;-77
2024/02/29 09:22:10;;;;;;;33.80;20.13;;;6.80;99.60;;;;;;5034641;28;20225;-77
2024/02/29 09:24:37;;;;;;;30.63;21.05;;;6.90;99.60;;;;;;5030918;28;20292;-77
2024/02/29 09:27:04;;;;;;;33.70;18.92;;;6.80;99.90;;;;;;5026310;28;20280;-78
2024/02/29 09:29:33;;;;;;;31.85;20.20;;;6.90;99.30;;;;;;5028976;28;20293;-77
2024/02/29 09:32:00;;;;;;;30.90;17.80;;;7.10;99.20;;;;;;5031978;28;20266;-77
2024/02/29 09:34:28;;;;;;;34.00;20.10;;;6.90;99.10;;;;;;5032917;28;20955;-78
2024/02/29 09:36:55;;;;;;;29.00;19.23;;;7.20;99.40;;;;;;5027987;28;20651;-77
2024/02/29 09:39:21;;;;;;;24.90;18.60;;;7.20;98.80;;;;;;5029992;28;20719;-77
2024/02/29 09:41:48;;;;;;;24.93;18.93;;;7.30;98.90;;;;;;5031052;28;20654;-78
2024/02/29 09:44:16;;;;;;;34.33;19.97;;;7.40;99.00;;;;;;5027080;28;21034;-77
2024/02/29 09:46:46;;;;;;;35.30;19.50;;;7.60;98.60;;;;;;5034980;28;20659;-77
2024/02/29 09:49:13;;;;;;;31.77;19.47;;;7.60;98.30;;;;;;5024323;28;20651;-77
2024/02/29 09:51:41;;;;;;;34.17;20.63;;;7.70;98.40;;;;;;5028448;28;20634;-77
2024/02/29 09:54:08;;;;;;;30.77;19.43;;;7.70;98.30;;;;;;5032472;28;20721;-77
2024/02/29 09:56:35;;;;;;;30.97;17.97;;;7.70;98.40;;;;;;5026065;28;21214;-77
2024/02/29 09:59:03;;;;;;;29.70;19.90;;;7.70;98.30;;;;;;5029357;28;20731;-78
2024/02/29 10:01:30;;;;;;;26.87;18.57;;;7.80;98.60;;;;;;5045439;27;20631;-78
2024/02/29 10:04:01;;;;;;;33.67;20.80;;;8.10;99.90;;;;;;5055379;27;20696;-78
2024/02/29 10:06:28;;;;;;;35.20;20.43;;;8.20;98.30;;;;;;5056951;27;20619;-78
2024/02/29 10:08:55;;;;;;;35.43;23.13;;;8.20;97.70;;;;;;5022907;28;21212;-78
2024/02/29 10:11:21;;;;;;;34.93;21.13;;;8.20;98.00;;;;;;5026137;28;20633;-77
2024/02/29 10:13:48;;;;;;;25.97;17.33;;;8.30;97.40;;;;;;5024945;28;21175;-77
2024/02/29 10:16:15;;;;;;;30.40;19.50;;;8.20;97.70;;;;;;5053015;27;20821;-77
2024/02/29 10:18:42;;;;;;;31.07;19.13;;;8.30;97.70;;;;;;5032568;28;20708;-77
2024/02/29 10:21:11;;;;;;;29.43;20.27;;;8.40;97.50;;;;;;5052247;27;21067;-78
2024/02/29 10:23:38;;;;;;;25.57;17.93;;;8.50;97.40;;;;;;5023605;28;20684;-78
2024/02/29 10:26:05;;;;;;;28.53;18.83;;;8.50;97.70;;;;;;5018541;28;20666;-78
2024/02/29 10:28:32;;;;;;;29.60;18.00;;;8.60;97.30;;;;;;5023515;28;21169;-77
2024/02/29 10:31:00;;;;;;;28.23;19.07;;;8.70;96.80;;;;;;5020370;28;20774;-78
2024/02/29 10:33:27;;;;;;;29.77;19.90;;;8.60;97.30;;;;;;5036847;27;20638;-78
2024/02/29 10:35:55;;;;;;;34.53;18.80;;;8.70;97.30;;;;;;5031829;27;21187;-78
2024/02/29 10:38:23;;;;;;;31.00;20.40;;;8.80;97.00;;;;;;5037782;27;20693;-78
2024/02/29 10:40:52;;;;;;;25.30;18.60;;;8.80;97.00;;;;;;5027521;28;20631;-78
2024/02/29 10:43:20;;;;;;;29.17;19.70;;;8.70;96.80;;;;;;5031579;28;20735;-78
2024/02/29 10:45:51;;;;;;;27.20;19.40;;;8.70;97.00;;;;;;5031072;28;20624;-78
2024/02/29 10:48:23;;;;;;;26.00;18.27;;;8.90;96.90;;;;;;5030897;28;21238;-78
2024/02/29 10:51:00;;;;;;;29.00;18.47;;;9.00;96.70;;;;;;5026391;28;20699;-78
2024/02/29 10:53:40;;;;;;;29.40;20.50;;;8.90;96.60;;;;;;5025070;28;20631;-78
2024/02/29 10:56:14;;;;;;;33.00;19.77;;;8.90;96.90;;;;;;5037845;27;20734;-78
2024/02/29 10:58:43;;;;;;;27.47;20.40;;;9.00;96.70;;;;;;5052222;27;20740;-78
2024/02/29 11:01:12;;;;;;;25.57;17.80;;;9.00;96.60;;;;;;5044918;27;20660;-78
2024/02/29 11:03:39;;;;;;;26.93;17.73;;;9.10;96.60;;;;;;5030550;28;20657;-78
2024/02/29 11:06:08;;;;;;;30.77;18.17;;;9.20;96.80;;;;;;5025498;28;20625;-78
2024/02/29 11:08:36;;;;;;;28.77;18.57;;;9.30;96.50;;;;;;5031971;27;21450;-78
2024/02/29 11:11:03;;;;;;;27.77;18.10;;;9.40;99.30;;;;;;5060026;27;20664;-78
2024/02/29 11:13:30;;;;;;;25.97;18.50;;;9.40;96.10;;;;;;5078642;27;20641;-78
2024/02/29 11:15:57;;;;;;;32.43;17.43;;;9.40;96.00;;;;;;5054514;27;21151;-78
2024/02/29 11:18:24;;;;;;;25.87;17.47;;;9.30;96.10;;;;;;5044982;27;20641;-79
2024/02/29 11:21:04;;;;;;;27.63;16.20;;;9.30;96.20;;;;;;5048540;27;20693;-77
2024/02/29 11:23:34;;;;;;;31.27;17.87;;;9.40;96.30;;;;;;5024810;28;21297;-76
2024/02/29 11:26:03;;;;;;;25.00;16.10;;;9.40;95.90;;;;;;5028868;28;20732;-78
2024/02/29 11:28:38;;;;;;;27.57;17.70;;;9.40;95.90;;;;;;5028395;28;20749;-77
2024/02/29 11:31:17;;;;;;;26.63;17.33;;;9.50;95.90;;;;;;5028700;28;20692;-78
2024/02/29 11:33:46;;;;;;;25.87;16.50;;;9.60;94.90;;;;;;5030282;27;20648;-77
2024/02/29 11:36:13;;;;;;;18.87;14.67;;;9.60;94.70;;;;;;5027610;28;20609;-77
2024/02/29 11:38:40;;;;;;;24.73;16.40;;;9.70;94.70;;;;;;5026239;28;20629;-78
2024/02/29 11:41:19;;;;;;;18.90;14.70;;;9.40;95.20;;;;;;5028270;28;20727;-77
2024/02/29 11:43:47;;;;;;;26.17;16.00;;;9.60;95.00;;;;;;5027844;28;20720;-78
2024/02/29 11:46:15;;;;;;;23.57;15.90;;;9.70;95.10;;;;;;5027442;28;20630;-76
2024/02/29 11:48:42;;;;;;;21.70;16.03;;;9.70;94.90;;;;;;5023255;28;20635;-76
2024/02/29 11:51:09;;;;;;;21.87;14.77;;;9.70;94.90;;;;;;5024920;28;20664;-77
2024/02/29 11:53:38;;;;;;;24.60;15.90;;;9.70;94.70;;;;;;5025070;28;20665;-75
2024/02/29 11:56:05;;;;;;;21.33;14.53;;;9.80;94.50;;;;;;5065596;27;21012;-76
2024/02/29 11:58:34;;;;;;;20.80;14.83;;;9.80;94.50;;;;;;5039550;27;20635;-76
2024/02/29 12:01:01;;;;;;;23.77;15.90;;;9.90;94.50;;;;;;5026310;27;20625;-76
2024/02/29 12:03:29;;;;;;;20.23;14.63;;;9.90;94.40;;;;;;5044220;27;20641;-76
2024/02/29 12:05:58;;;;;;;20.20;13.37;;;9.90;94.50;;;;;;5062658;27;20649;-76
2024/02/29 12:08:27;;;;;;;20.17;14.23;;;9.90;94.30;;;;;;5035685;27;20632;-76
2024/02/29 12:10:56;;;;;;;16.70;13.50;;;9.80;94.60;;;;;;5026334;28;20682;-76
2024/02/29 12:13:23;;;;;;;21.97;15.60;;;9.90;94.30;;;;;;5029330;28;20621;-76
2024/02/29 12:15:53;;;;;;;21.20;13.07;;;10.00;93.60;;;;;;5016725;28;20737;-76
2024/02/29 12:18:20;;;;;;;19.43;13.30;;;10.00;93.60;;;;;;5016931;28;20973;-76
2024/02/29 12:20:48;;;;;;;16.23;11.93;;;10.00;93.40;;;;;;5018719;28;20637;-76
2024/02/29 12:23:15;;;;;;;16.33;12.73;;;10.10;93.30;;;;;;5023274;28;21511;-76
2024/02/29 12:25:42;;;;;;;18.20;13.40;;;10.00;93.20;;;;;;5027216;28;21179;-75
2024/02/29 12:28:10;;;;;;;21.50;11.97;;;10.10;92.90;;;;;;5023247;28;20642;-76
2024/02/29 12:30:37;;;;;;;17.30;12.30;;;10.10;92.90;;;;;;5020754;28;20658;-75
2024/02/29 12:33:06;;;;;;;17.67;11.90;;;10.10;93.00;;;;;;5025913;28;21295;-76
2024/02/29 12:35:33;;;;;;;17.40;12.70;;;10.20;92.30;;;;;;5030409;27;20735;-76
2024/02/29 12:38:01;;;;;;;16.10;11.70;;;10.20;92.20;;;;;;5035277;27;20741;-76
2024/02/29 12:40:30;;;;;;;19.17;13.20;;;10.30;91.80;;;;;;5031668;28;20649;-76
2024/02/29 12:42:57;;;;;;;14.17;10.03;;;10.20;91.90;;;;;;5038633;27;20632;-76